createdAt,value
2022-09-09T00:00:59.360Z,14.70
2022-09-09T00:03:28.681Z,14.60
2022-09-09T00:06:02.796Z,14.60
2022-09-09T00:08:40.558Z,14.60
2022-09-09T00:11:13.824Z,14.60
2022-09-09T00:13:49.305Z,14.60
2022-09-09T00:16:19.526Z,14.60
2022-09-09T00:18:57.058Z,14.60
2022-09-09T00:21:28.435Z,14.60
2022-09-09T00:23:56.508Z,14.60
2022-09-09T00:26:35.416Z,14.50
2022-09-09T00:29:10.565Z,14.50
2022-09-09T00:31:37.972Z,14.50
2022-09-09T00:34:12.993Z,14.50
2022-09-09T00:36:41.703Z,14.50
2022-09-09T00:39:16.110Z,14.50
2022-09-09T00:42:02.024Z,14.50
2022-09-09T00:44:34.862Z,14.40
2022-09-09T00:47:12.846Z,14.50
2022-09-09T00:49:49.725Z,14.50
2022-09-09T00:52:29.923Z,14.70
2022-09-09T00:55:04.399Z,14.50
2022-09-09T00:57:33.161Z,14.40
2022-09-09T01:00:18.784Z,14.40
2022-09-09T01:02:54.739Z,14.40
2022-09-09T01:05:30.797Z,14.40
2022-09-09T01:08:15.021Z,14.40
2022-09-09T01:10:50.454Z,14.40
2022-09-09T01:13:24.924Z,14.30
2022-09-09T01:15:56.257Z,14.70
2022-09-09T01:18:28.759Z,14.20
2022-09-09T01:21:04.800Z,14.20
2022-09-09T01:23:50.034Z,14.40
2022-09-09T01:26:21.994Z,14.10
2022-09-09T01:28:50.530Z,14.10
2022-09-09T01:31:20.954Z,14.10
2022-09-09T01:36:22.170Z,14.00
2022-09-09T01:43:43.543Z,14.00
2022-09-09T01:46:11.790Z,14.00
2022-09-09T01:51:06.664Z,14.10
2022-09-09T01:56:11.858Z,14.00
2022-09-09T01:58:51.383Z,14.10
2022-09-09T02:01:28.424Z,14.00
2022-09-09T02:03:58.386Z,14.00
2022-09-09T02:06:30.920Z,13.90
2022-09-09T02:09:00.437Z,13.90
2022-09-09T02:11:29.459Z,13.90
2022-09-09T02:14:01.339Z,13.90
2022-09-09T02:16:32.201Z,13.90
2022-09-09T02:19:03.684Z,13.90
2022-09-09T02:21:31.906Z,13.90
2022-09-09T02:24:01.502Z,13.90
2022-09-09T02:28:59.480Z,13.90
2022-09-09T02:33:57.546Z,13.90
2022-09-09T02:36:34.818Z,13.80
2022-09-09T02:39:02.589Z,13.70
2022-09-09T02:41:33.969Z,13.70
2022-09-09T02:44:01.780Z,13.70
2022-09-09T02:46:49.686Z,13.70
2022-09-09T02:49:24.559Z,13.40
2022-09-09T02:51:57.182Z,13.60
2022-09-09T02:54:29.167Z,13.50
2022-09-09T02:59:26.976Z,13.50
2022-09-09T03:16:39.544Z,13.50
2022-09-09T03:26:31.053Z,13.50
2022-09-09T03:48:37.439Z,13.30
2022-09-09T03:51:05.132Z,13.20
2022-09-09T03:53:32.131Z,13.50
2022-09-09T04:00:55.290Z,13.20
2022-09-09T04:06:00.642Z,13.10
2022-09-09T04:13:25.746Z,13.00
2022-09-09T04:15:53.126Z,13.00
2022-09-09T04:18:20.279Z,13.00
2022-09-09T04:25:45.611Z,13.00
2022-09-09T04:42:59.708Z,13.00
2022-09-09T04:55:15.917Z,13.20
2022-09-09T04:57:45.652Z,13.10
2022-09-09T05:00:14.707Z,13.20
2022-09-09T05:05:11.490Z,15.50
2022-09-09T05:10:07.039Z,13.80
2022-09-09T05:17:29.127Z,14.00
2022-09-09T05:42:06.897Z,15.10
2022-09-09T05:51:55.314Z,15.50
2022-09-09T06:09:10.736Z,16.10
2022-09-09T06:11:39.243Z,16.00
2022-09-09T06:14:06.607Z,17.70
2022-09-09T06:19:01.452Z,16.20
2022-09-09T06:21:30.408Z,16.10
2022-09-09T06:26:33.182Z,16.10
2022-09-09T06:29:03.630Z,16.40
2022-09-09T06:31:32.124Z,16.60
2022-09-09T06:33:59.807Z,16.60
2022-09-09T06:36:27.834Z,16.60
2022-09-09T06:41:25.024Z,16.90
2022-09-09T06:43:52.402Z,16.90
2022-09-09T06:46:23.802Z,17.10
2022-09-09T06:51:23.806Z,17.10
2022-09-09T06:53:54.546Z,17.30
2022-09-09T06:56:25.862Z,17.80
2022-09-09T06:58:54.890Z,17.40
2022-09-09T07:01:23.991Z,17.50
2022-09-09T07:03:52.682Z,17.50
2022-09-09T07:06:24.270Z,17.40
2022-09-09T07:08:56.590Z,17.50
2022-09-09T07:11:27.139Z,17.60
2022-09-09T07:13:55.269Z,17.60
2022-09-09T07:16:23.948Z,17.70
2022-09-09T07:26:14.839Z,17.90
2022-09-09T07:31:16.878Z,18.00
2022-09-09T07:33:44.763Z,18.10
2022-09-09T07:36:14.580Z,18.50
2022-09-09T07:38:50.451Z,18.30
2022-09-09T07:41:19.573Z,18.40
2022-09-09T07:43:48.311Z,18.60
2022-09-09T07:46:17.236Z,18.80
2022-09-09T07:48:45.754Z,18.80
2022-09-09T07:51:17.231Z,18.80
2022-09-09T07:56:13.788Z,19.00
2022-09-09T07:58:41.320Z,19.00
2022-09-09T08:01:10.245Z,19.20
2022-09-09T08:03:38.181Z,19.30
2022-09-09T08:06:07.266Z,19.40
2022-09-09T08:08:34.727Z,19.60
2022-09-09T08:11:07.927Z,20.10
2022-09-09T08:13:35.850Z,21.30
2022-09-09T08:16:10.735Z,20.60
2022-09-09T08:18:39.414Z,21.40
2022-09-09T08:21:08.728Z,22.20
2022-09-09T08:26:07.182Z,21.60
2022-09-09T08:31:10.114Z,20.90
2022-09-09T08:36:06.850Z,23.10
2022-09-09T08:38:35.083Z,20.70
2022-09-09T08:41:21.853Z,20.70
2022-09-09T08:43:51.574Z,20.70
2022-09-09T08:46:24.495Z,20.50
2022-09-09T08:48:59.019Z,20.10
2022-09-09T08:51:28.487Z,20.00
2022-09-09T08:53:59.652Z,20.00
2022-09-09T08:56:29.104Z,20.00
2022-09-09T08:58:57.539Z,20.00
2022-09-09T09:01:45.219Z,19.80
2022-09-09T09:04:29.462Z,20.00
2022-09-09T09:07:05.549Z,20.50
2022-09-09T09:09:38.809Z,21.10
2022-09-09T09:12:15.790Z,22.00
2022-09-09T09:14:47.173Z,23.50
2022-09-09T09:17:17.454Z,25.00
2022-09-09T09:19:50.318Z,25.90
2022-09-09T09:22:21.459Z,26.60
2022-09-09T09:24:53.307Z,27.30
2022-09-09T09:27:28.938Z,27.50
2022-09-09T09:30:21.493Z,28.00
2022-09-09T09:32:53.730Z,28.00
2022-09-09T09:35:21.407Z,28.80
2022-09-09T09:40:48.956Z,29.70
2022-09-09T09:43:22.428Z,30.10
2022-09-09T09:46:06.951Z,30.40
2022-09-09T09:48:38.943Z,29.80
2022-09-09T09:51:13.047Z,29.00
2022-09-09T09:53:40.232Z,28.40
2022-09-09T09:56:10.412Z,28.90
2022-09-09T09:58:50.556Z,29.90
2022-09-09T10:01:24.666Z,30.40
2022-09-09T10:03:53.270Z,31.10
2022-09-09T10:06:31.887Z,31.90
2022-09-09T10:08:59.617Z,29.40
2022-09-09T10:11:50.246Z,32.40
2022-09-09T10:14:22.658Z,32.00
2022-09-09T10:17:14.310Z,30.70
2022-09-09T10:19:50.454Z,30.70
2022-09-09T10:22:28.622Z,31.40
2022-09-09T10:29:13.237Z,29.80
2022-09-09T10:31:53.162Z,29.60
2022-09-09T10:34:33.391Z,28.40
2022-09-09T10:37:00.985Z,27.00
2022-09-09T10:39:42.148Z,27.20
2022-09-09T10:42:13.654Z,27.30
2022-09-09T10:45:02.804Z,27.80
2022-09-09T10:48:01.783Z,27.50
2022-09-09T10:53:52.666Z,26.60
2022-09-09T10:56:24.339Z,26.70
2022-09-09T10:58:57.693Z,27.30
2022-09-09T11:01:28.239Z,28.50
2022-09-09T11:04:00.461Z,29.30
2022-09-09T11:06:33.505Z,29.30
2022-09-09T11:09:03.066Z,29.30
2022-09-09T11:11:35.743Z,28.00
2022-09-09T11:14:09.162Z,28.00
2022-09-09T11:16:43.554Z,28.90
2022-09-09T11:19:17.693Z,29.20
2022-09-09T11:21:47.893Z,28.70
2022-09-09T11:24:23.002Z,28.40
2022-09-09T11:26:57.048Z,27.90
2022-09-09T11:29:44.456Z,28.00
2022-09-09T11:32:25.900Z,28.70
2022-09-09T11:34:57.394Z,27.80
2022-09-09T11:37:48.416Z,26.80
2022-09-09T11:40:23.857Z,28.20
2022-09-09T11:43:04.275Z,29.30
2022-09-09T11:45:32.536Z,29.40
2022-09-09T11:48:00.543Z,29.20
2022-09-09T11:50:33.673Z,29.20
2022-09-09T11:53:23.175Z,29.90
2022-09-09T11:56:06.071Z,30.50
2022-09-09T11:58:39.291Z,29.60
2022-09-09T12:01:35.017Z,28.60
2022-09-09T12:04:19.843Z,27.10
2022-09-09T12:06:53.063Z,26.70
2022-09-09T12:09:25.701Z,26.90
2022-09-09T12:14:37.520Z,27.00
2022-09-09T12:17:21.117Z,28.40
2022-09-09T12:19:48.576Z,28.80
2022-09-09T12:22:27.001Z,28.40
2022-09-09T12:25:00.910Z,29.70
2022-09-09T12:27:32.997Z,29.00
2022-09-09T12:30:04.355Z,28.50
2022-09-09T12:32:31.203Z,28.10
2022-09-09T12:35:01.895Z,27.50
2022-09-09T12:37:33.830Z,26.70
2022-09-09T12:40:03.095Z,25.70
2022-09-09T12:44:58.696Z,25.00
2022-09-09T12:47:41.032Z,24.50
2022-09-09T12:50:17.406Z,24.20
2022-09-09T12:55:19.453Z,23.90
2022-09-09T13:00:17.053Z,23.70
2022-09-09T13:02:50.546Z,23.70
2022-09-09T13:05:21.378Z,23.20
2022-09-09T13:10:30.700Z,23.60
2022-09-09T13:15:32.257Z,23.40
2022-09-09T13:18:03.583Z,23.80
2022-09-09T13:22:58.684Z,24.10
2022-09-09T13:25:27.342Z,24.20
2022-09-09T13:27:56.771Z,24.00
2022-09-09T13:30:26.219Z,24.00
2022-09-09T13:33:05.352Z,24.20
2022-09-09T13:35:33.165Z,24.10
2022-09-09T13:38:07.379Z,24.10
2022-09-09T13:47:56.850Z,23.90
2022-09-09T13:50:27.165Z,23.80
2022-09-09T13:52:55.452Z,23.80
2022-09-09T13:55:24.186Z,25.80
2022-09-09T13:57:54.795Z,24.10
2022-09-09T14:00:22.172Z,23.90
2022-09-09T14:07:50.096Z,23.80
2022-09-09T14:20:12.110Z,23.20
2022-09-09T14:25:10.904Z,23.50
2022-09-09T14:27:39.731Z,23.40
2022-09-09T14:30:07.562Z,23.00
2022-09-09T14:42:26.234Z,23.50
2022-09-09T14:47:20.061Z,23.60
2022-09-09T14:59:41.040Z,23.40
2022-09-09T15:02:09.956Z,23.30
2022-09-09T15:32:30.387Z,22.80
2022-09-09T15:47:14.344Z,22.50
2022-09-09T15:49:41.991Z,22.40
2022-09-09T15:52:11.437Z,22.40
2022-09-09T15:57:07.621Z,22.30
2022-09-09T16:07:06.751Z,25.80
2022-09-09T16:09:35.325Z,22.30
2022-09-09T16:12:06.570Z,22.10
2022-09-09T16:27:00.525Z,22.30
2022-09-09T16:39:22.314Z,22.00
2022-09-09T16:41:50.092Z,22.00
2022-09-09T16:44:19.113Z,21.90
2022-09-09T16:46:49.034Z,21.80
2022-09-09T16:49:16.698Z,21.70
2022-09-09T16:51:46.055Z,21.60
2022-09-09T16:56:43.963Z,21.40
2022-09-09T16:59:13.523Z,21.10
2022-09-09T17:01:42.189Z,21.30
2022-09-09T17:04:11.486Z,21.10
2022-09-09T17:09:08.384Z,20.90
2022-09-09T17:14:04.303Z,20.70
2022-09-09T17:16:34.442Z,22.90
2022-09-09T17:19:04.552Z,20.40
2022-09-09T17:21:32.421Z,20.40
2022-09-09T17:26:28.342Z,20.20
2022-09-09T17:31:28.790Z,20.00
2022-09-09T17:33:56.116Z,19.90
2022-09-09T17:36:25.286Z,20.00
2022-09-09T17:38:52.788Z,19.80
2022-09-09T17:41:21.963Z,19.70
2022-09-09T17:46:20.176Z,19.40
2022-09-09T17:48:48.112Z,19.30
2022-09-09T17:51:20.510Z,19.20
2022-09-09T17:53:49.043Z,19.10
2022-09-09T17:56:20.471Z,19.00
2022-09-09T18:01:18.502Z,18.80
2022-09-09T18:03:46.743Z,18.70
2022-09-09T18:06:17.671Z,18.60
2022-09-09T18:08:49.574Z,18.40
2022-09-09T18:11:17.696Z,18.40
2022-09-09T18:23:40.365Z,18.40
2022-09-09T18:26:10.662Z,18.20
2022-09-09T18:31:06.917Z,18.00
2022-09-09T18:33:36.206Z,17.80
2022-09-09T18:36:06.509Z,17.80
2022-09-09T18:41:13.137Z,17.60
2022-09-09T18:58:29.305Z,17.50
2022-09-09T19:28:13.424Z,14.00
2022-09-09T19:33:22.406Z,17.00
2022-09-09T19:36:01.395Z,16.90
2022-09-09T19:43:24.191Z,16.30
2022-09-09T19:46:04.237Z,16.70
2022-09-09T19:48:38.172Z,16.70
2022-09-09T19:51:11.594Z,16.70
2022-09-09T19:53:40.284Z,16.70
2022-09-09T19:56:11.737Z,16.90
2022-09-09T19:58:40.374Z,16.80
2022-09-09T20:01:11.763Z,17.00
2022-09-09T20:03:42.112Z,16.70
2022-09-09T20:06:11.410Z,16.80
2022-09-09T20:08:39.376Z,16.80
2022-09-09T20:11:07.726Z,17.00
2022-09-09T20:13:38.184Z,16.80
2022-09-09T20:16:07.170Z,16.80
2022-09-09T20:18:36.283Z,16.80
2022-09-09T20:21:06.079Z,16.80
2022-09-09T20:23:33.978Z,16.60
2022-09-09T20:26:02.255Z,16.70
2022-09-09T20:33:23.051Z,16.70
2022-09-09T20:38:17.296Z,16.60
2022-09-09T20:55:38.675Z,16.30
2022-09-09T21:12:53.791Z,16.10
2022-09-09T21:25:08.950Z,16.00
2022-09-09T21:30:04.338Z,16.10
2022-09-09T21:40:07.874Z,15.50
2022-09-09T21:47:29.153Z,15.70
2022-09-09T22:04:48.818Z,15.60
2022-09-09T22:22:01.851Z,15.50
2022-09-09T22:31:52.558Z,15.40
2022-09-09T22:39:14.629Z,15.50
2022-09-09T22:56:30.438Z,15.30
2022-09-09T23:01:26.499Z,15.30
2022-09-09T23:03:54.604Z,15.40
2022-09-09T23:06:24.734Z,15.20
2022-09-09T23:08:55.306Z,15.20
2022-09-09T23:11:23.137Z,15.10
2022-09-09T23:13:52.386Z,15.10
2022-09-09T23:16:20.641Z,15.10
2022-09-09T23:21:15.739Z,15.00
2022-09-09T23:23:43.909Z,14.90
2022-09-09T23:26:12.822Z,14.90
2022-09-09T23:28:41.220Z,14.90
2022-09-09T23:31:10.394Z,14.60
2022-09-09T23:36:07.339Z,14.80
2022-09-09T23:41:02.305Z,14.60
2022-09-09T23:45:56.473Z,14.60
2022-09-09T23:48:37.769Z,14.50
2022-09-09T23:51:08.193Z,14.60
2022-09-09T23:58:32.537Z,14.50
